Time;durP1;ratioP1;P1;durP2;ratioP2;P2;SDS_P1;SDS_P2;PMS_P1;PMS_P2;Temp;Humidity;BMP_temperature;BMP_pressure;BME280_temperature;BME280_humidity;BME280_pressure;Samples;Min_cycle;Max_cycle;Signal;HPM_P1;HPM_P2
2023/09/23 06:43:40;;;;;;;;;21.00;20.33;;;;;;;;6241435;22;45267;-87
2023/09/23 06:46:05;;;;;;;;;23.33;17.00;;;;;;;;6248380;22;45396;-87
2023/09/23 06:48:30;;;;;;;;;17.00;17.00;;;;;;;;6248893;22;45445;-87
2023/09/23 06:50:59;;;;;;;;;42.67;35.00;;;;;;;;6247606;22;45323;-87
2023/09/23 07:02:06;;;;;;;;;68.25;50.75;;;;;;;;6206608;22;45729;-88
2023/09/23 07:15:20;;;;;;;;;3.67;3.00;;;;;;;;6268091;22;45281;-88
2023/09/23 07:17:46;;;;;;;;;3.00;3.00;;;;;;;;6279108;22;45396;-88
2023/09/23 07:20:11;;;;;;;;;1.00;1.00;;;;;;;;6280224;22;45383;-88
2023/09/23 07:22:36;;;;;;;;;1.00;1.00;;;;;;;;6280231;22;45382;-88
2023/09/23 07:25:03;;;;;;;;;4.33;4.33;;;;;;;;6277102;22;45314;-87
2023/09/23 07:27:28;;;;;;;;;4.33;4.33;;;;;;;;6277940;22;45241;-88
2023/09/23 07:29:54;;;;;;;;;10.33;10.33;;;;;;;;6276448;22;45268;-88
2023/09/23 07:32:19;;;;;;;;;6.00;6.00;;;;;;;;6276967;22;45273;-88
2023/09/23 07:34:45;;;;;;;;;7.67;7.67;;;;;;;;6276634;22;45228;-87
2023/09/23 07:37:13;;;;;;;;;5.00;3.00;;;;;;;;6280370;22;45340;-88
2023/09/23 07:39:38;;;;;;;;;4.67;4.67;;;;;;;;6276083;22;45425;-88
2023/09/23 07:42:04;;;;;;;;;3.00;3.00;;;;;;;;6276534;22;45619;-88
2023/09/23 07:44:29;;;;;;;;;2.00;2.00;;;;;;;;6276524;22;45219;-88
2023/09/23 07:46:54;;;;;;;;;1.00;1.00;;;;;;;;6276871;22;45355;-88
2023/09/23 07:49:19;;;;;;;;;1.00;1.00;;;;;;;;6276049;22;45292;-88
2023/09/23 07:51:45;;;;;;;;;0.00;0.00;;;;;;;;6276844;22;45745;-87
2023/09/23 07:54:11;;;;;;;;;0.00;0.00;;;;;;;;6280851;22;45275;-87
2023/09/23 07:56:36;;;;;;;;;0.00;0.00;;;;;;;;6276404;22;45380;-87
2023/09/23 07:59:01;;;;;;;;;0.00;0.00;;;;;;;;6275796;22;45384;-88
2023/09/23 08:01:27;;;;;;;;;0.67;0.67;;;;;;;;6277827;22;45212;-88
2023/09/23 08:03:52;;;;;;;;;1.00;1.00;;;;;;;;6279048;22;45284;-88
2023/09/23 08:06:17;;;;;;;;;0.33;0.00;;;;;;;;6277487;22;45497;-87
2023/09/23 08:08:43;;;;;;;;;2.00;0.00;;;;;;;;6275365;22;46065;-89
2023/09/23 08:11:08;;;;;;;;;1.00;1.00;;;;;;;;6275082;22;45304;-90
2023/09/23 08:13:33;;;;;;;;;0.00;0.00;;;;;;;;6280312;22;45271;-89
2023/09/23 08:15:58;;;;;;;;;0.33;0.33;;;;;;;;6281092;22;45402;-89
2023/09/23 08:18:24;;;;;;;;;1.00;1.00;;;;;;;;6279982;22;45145;-89
2023/09/23 08:20:56;;;;;;;;;0.33;0.33;;;;;;;;6279442;22;45153;-89
2023/09/23 08:23:22;;;;;;;;;0.67;0.00;;;;;;;;6280445;22;45676;-89
2023/09/23 08:25:47;;;;;;;;;0.00;0.00;;;;;;;;6278511;22;45417;-89
2023/09/23 08:28:13;;;;;;;;;1.00;1.00;;;;;;;;6280707;22;45381;-89
2023/09/23 08:30:39;;;;;;;;;0.00;0.00;;;;;;;;6277885;22;45329;-89
2023/09/23 08:33:04;;;;;;;;;0.00;0.00;;;;;;;;6278398;22;45299;-89
2023/09/23 08:35:30;;;;;;;;;0.33;0.33;;;;;;;;6280989;22;45141;-89
2023/09/23 08:37:55;;;;;;;;;2.00;1.00;;;;;;;;6280448;22;45284;-89
2023/09/23 08:40:21;;;;;;;;;1.00;1.00;;;;;;;;6280176;22;45189;-89
2023/09/23 08:42:49;;;;;;;;;30.67;30.67;;;;;;;;6280624;22;45094;-89
2023/09/23 08:45:14;;;;;;;;;3.67;3.67;;;;;;;;6280726;22;45342;-89
2023/09/23 08:47:39;;;;;;;;;4.33;4.33;;;;;;;;6280326;22;45334;-89
2023/09/23 08:50:11;;;;;;;;;7.33;7.33;;;;;;;;6279757;22;45319;-89
2023/09/23 08:52:36;;;;;;;;;3.00;3.00;;;;;;;;6278530;22;45375;-89
2023/09/23 08:55:04;;;;;;;;;1.00;1.00;;;;;;;;6281035;22;45173;-89
2023/09/23 08:57:29;;;;;;;;;1.00;1.00;;;;;;;;6279836;22;46460;-89
2023/09/23 08:59:54;;;;;;;;;2.00;2.00;;;;;;;;6277836;22;45373;-89
2023/09/23 09:02:21;;;;;;;;;1.00;1.00;;;;;;;;6278713;22;45350;-89
2023/09/23 09:04:47;;;;;;;;;0.00;0.00;;;;;;;;6278484;22;45295;-89
2023/09/23 09:07:12;;;;;;;;;2.00;1.00;;;;;;;;6279904;22;45256;-89
2023/09/23 09:09:37;;;;;;;;;0.00;0.00;;;;;;;;6277318;22;45601;-89
2023/09/23 09:12:04;;;;;;;;;1.00;1.00;;;;;;;;6278326;22;45252;-89
2023/09/23 09:14:30;;;;;;;;;1.00;1.00;;;;;;;;6277813;22;45413;-89
2023/09/23 09:16:55;;;;;;;;;0.00;0.00;;;;;;;;6280426;22;45222;-89
2023/09/23 09:19:20;;;;;;;;;1.00;1.00;;;;;;;;6279398;22;45189;-89
2023/09/23 09:21:46;;;;;;;;;1.00;1.00;;;;;;;;6278507;22;45243;-89
2023/09/23 09:24:13;;;;;;;;;0.00;0.00;;;;;;;;6278231;22;45449;-89
2023/09/23 09:26:39;;;;;;;;;0.00;0.00;;;;;;;;6279730;22;45415;-89
2023/09/23 09:29:04;;;;;;;;;0.00;0.00;;;;;;;;6279929;22;45145;-89
2023/09/23 09:31:33;;;;;;;;;0.00;0.00;;;;;;;;6278108;22;45469;-89
2023/09/23 09:34:02;;;;;;;;;1.00;1.00;;;;;;;;6280575;22;45212;-89
2023/09/23 09:36:28;;;;;;;;;0.00;0.00;;;;;;;;6277955;22;45514;-90
2023/09/23 09:38:54;;;;;;;;;1.00;1.00;;;;;;;;6279672;22;45514;-89
2023/09/23 09:41:21;;;;;;;;;0.00;0.00;;;;;;;;6278470;22;45347;-89
2023/09/23 09:43:47;;;;;;;;;0.00;0.00;;;;;;;;6280025;22;45321;-90
2023/09/23 09:46:13;;;;;;;;;0.00;0.00;;;;;;;;6279886;22;45259;-89
2023/09/23 09:48:41;;;;;;;;;0.33;0.33;;;;;;;;6280255;22;45327;-89
2023/09/23 09:51:06;;;;;;;;;0.00;0.00;;;;;;;;6277859;22;45311;-89
2023/09/23 09:53:33;;;;;;;;;0.33;0.00;;;;;;;;6280486;22;45636;-89
2023/09/23 09:55:58;;;;;;;;;0.00;0.00;;;;;;;;6279877;22;45504;-89
2023/09/23 09:58:33;;;;;;;;;0.00;0.00;;;;;;;;6280524;22;45245;-89
2023/09/23 10:00:58;;;;;;;;;0.00;0.00;;;;;;;;6279823;22;45334;-89
2023/09/23 10:03:27;;;;;;;;;0.00;0.00;;;;;;;;6280237;22;45242;-89
2023/09/23 10:05:58;;;;;;;;;0.00;0.00;;;;;;;;6279888;22;45671;-89
2023/09/23 10:08:26;;;;;;;;;0.00;0.00;;;;;;;;6277762;22;45666;-89
2023/09/23 10:10:58;;;;;;;;;0.00;0.00;;;;;;;;6279003;22;45426;-90
2023/09/23 10:13:27;;;;;;;;;0.00;0.00;;;;;;;;6279144;22;45264;-89
2023/09/23 10:16:04;;;;;;;;;0.00;0.00;;;;;;;;6277235;22;46218;-89
2023/09/23 10:18:40;;;;;;;;;0.00;0.00;;;;;;;;6279281;22;45511;-89
2023/09/23 10:21:06;;;;;;;;;0.00;0.00;;;;;;;;6277698;22;45292;-89
2023/09/23 10:23:39;;;;;;;;;0.00;0.00;;;;;;;;6281177;22;45184;-89
2023/09/23 10:26:13;;;;;;;;;1.00;1.00;;;;;;;;6277224;22;48070;-89
2023/09/23 10:28:39;;;;;;;;;1.00;1.00;;;;;;;;6278864;22;45164;-89
2023/09/23 10:31:04;;;;;;;;;0.00;0.00;;;;;;;;6281057;22;45528;-89
2023/09/23 10:33:31;;;;;;;;;0.00;0.00;;;;;;;;6281499;22;45406;-89
2023/09/23 10:35:59;;;;;;;;;0.00;0.00;;;;;;;;6281496;22;45238;-89
2023/09/23 10:38:27;;;;;;;;;0.00;0.00;;;;;;;;6277508;22;45348;-90
2023/09/23 10:40:54;;;;;;;;;0.00;0.00;;;;;;;;6281189;22;45354;-89
2023/09/23 10:43:22;;;;;;;;;0.67;0.67;;;;;;;;6281102;22;45496;-89
2023/09/23 10:45:56;;;;;;;;;0.00;0.00;;;;;;;;6281151;22;45588;-90
2023/09/23 10:48:22;;;;;;;;;0.00;0.00;;;;;;;;6280220;22;45243;-89
2023/09/23 10:50:48;;;;;;;;;0.00;0.00;;;;;;;;6281234;22;45311;-90
2023/09/23 10:53:14;;;;;;;;;0.00;0.00;;;;;;;;6279735;22;45442;-89
2023/09/23 10:55:40;;;;;;;;;0.00;0.00;;;;;;;;6281054;22;45346;-90
2023/09/23 10:58:08;;;;;;;;;0.00;0.00;;;;;;;;6280631;22;45392;-90
2023/09/23 11:00:34;;;;;;;;;0.00;0.00;;;;;;;;6280808;22;45419;-90
2023/09/23 11:03:05;;;;;;;;;0.00;0.00;;;;;;;;6281335;22;45165;-90
2023/09/23 11:05:31;;;;;;;;;0.00;0.00;;;;;;;;6281015;22;45372;-90
2023/09/23 11:07:59;;;;;;;;;0.00;0.00;;;;;;;;6281002;22;45341;-89
2023/09/23 11:10:29;;;;;;;;;0.00;0.00;;;;;;;;6279990;22;45179;-90
2023/09/23 11:12:55;;;;;;;;;0.00;0.00;;;;;;;;6278676;22;45379;-90
2023/09/23 11:15:21;;;;;;;;;0.00;0.00;;;;;;;;6280362;22;45385;-90
2023/09/23 11:17:46;;;;;;;;;0.00;0.00;;;;;;;;6280488;22;45370;-90
2023/09/23 11:20:12;;;;;;;;;0.00;0.00;;;;;;;;6278654;22;45303;-90
2023/09/23 11:22:40;;;;;;;;;0.00;0.00;;;;;;;;6279767;22;45326;-90
2023/09/23 11:25:11;;;;;;;;;0.00;0.00;;;;;;;;6280030;22;45951;-90
2023/09/23 11:27:37;;;;;;;;;0.00;0.00;;;;;;;;6281171;22;45326;-90
2023/09/23 11:30:11;;;;;;;;;0.00;0.00;;;;;;;;6280858;22;45319;-89
2023/09/23 11:32:36;;;;;;;;;0.00;0.00;;;;;;;;6278031;22;45265;-89
2023/09/23 11:35:04;;;;;;;;;0.00;0.00;;;;;;;;6277607;22;47432;-89
2023/09/23 11:37:29;;;;;;;;;0.00;0.00;;;;;;;;6281239;22;45259;-89
2023/09/23 11:39:58;;;;;;;;;0.00;0.00;;;;;;;;6278480;22;45335;-90
2023/09/23 11:42:24;;;;;;;;;0.00;0.00;;;;;;;;6279230;22;45192;-90
2023/09/23 11:44:49;;;;;;;;;0.00;0.00;;;;;;;;6278059;22;47748;-89
2023/09/23 11:47:15;;;;;;;;;0.00;0.00;;;;;;;;6281226;22;45378;-89
2023/09/23 11:49:41;;;;;;;;;0.00;0.00;;;;;;;;6277222;22;45267;-89
2023/09/23 11:52:12;;;;;;;;;0.00;0.00;;;;;;;;6280893;22;45454;-89
2023/09/23 11:54:37;;;;;;;;;0.00;0.00;;;;;;;;6280509;22;45624;-89
2023/09/23 11:57:02;;;;;;;;;0.00;0.00;;;;;;;;6280809;22;45215;-89
2023/09/23 11:59:28;;;;;;;;;0.00;0.00;;;;;;;;6277744;22;45362;-89
2023/09/23 12:01:56;;;;;;;;;0.00;0.00;;;;;;;;6281700;22;45123;-89
2023/09/23 12:04:21;;;;;;;;;0.67;0.00;;;;;;;;6278132;22;47526;-90
2023/09/23 12:06:46;;;;;;;;;0.00;0.00;;;;;;;;6281254;22;45252;-89
2023/09/23 12:09:11;;;;;;;;;0.00;0.00;;;;;;;;6252678;22;45316;-90
2023/09/23 12:11:37;;;;;;;;;0.00;0.00;;;;;;;;6281053;22;45327;-90
2023/09/23 12:14:03;;;;;;;;;0.00;0.00;;;;;;;;6280012;22;46284;-89
2023/09/23 12:16:30;;;;;;;;;0.00;0.00;;;;;;;;6280239;22;45254;-89
2023/09/23 12:18:56;;;;;;;;;0.00;0.00;;;;;;;;6279568;22;45225;-89
2023/09/23 12:21:21;;;;;;;;;0.00;0.00;;;;;;;;6280854;22;45240;-89
2023/09/23 12:23:46;;;;;;;;;0.00;0.00;;;;;;;;6281058;22;45200;-89
2023/09/23 12:26:11;;;;;;;;;0.00;0.00;;;;;;;;6280762;22;45135;-89
2023/09/23 12:28:37;;;;;;;;;0.00;0.00;;;;;;;;6280892;22;45160;-89
2023/09/23 12:31:02;;;;;;;;;0.00;0.00;;;;;;;;6280759;22;45206;-89
2023/09/23 12:33:28;;;;;;;;;0.00;0.00;;;;;;;;6280810;22;45270;-89
2023/09/23 12:35:53;;;;;;;;;0.00;0.00;;;;;;;;6280277;22;45227;-89
2023/09/23 12:38:18;;;;;;;;;0.00;0.00;;;;;;;;6281436;22;45437;-89
2023/09/23 12:40:44;;;;;;;;;0.00;0.00;;;;;;;;6277850;22;45371;-89
2023/09/23 12:43:11;;;;;;;;;0.00;0.00;;;;;;;;6280736;22;45971;-89
2023/09/23 12:45:37;;;;;;;;;0.00;0.00;;;;;;;;6280183;22;45421;-89
2023/09/23 12:48:03;;;;;;;;;0.00;0.00;;;;;;;;6280351;22;45356;-89
2023/09/23 12:50:31;;;;;;;;;0.00;0.00;;;;;;;;6280367;22;45510;-89
2023/09/23 12:52:56;;;;;;;;;0.00;0.00;;;;;;;;6280213;22;46163;-89
2023/09/23 12:55:21;;;;;;;;;0.00;0.00;;;;;;;;6278114;22;45465;-89
2023/09/23 12:57:48;;;;;;;;;0.00;0.00;;;;;;;;6280708;22;45506;-89
2023/09/23 13:00:13;;;;;;;;;0.00;0.00;;;;;;;;6278741;22;45348;-89
2023/09/23 13:02:38;;;;;;;;;0.00;0.00;;;;;;;;6280241;22;45584;-89
2023/09/23 13:05:04;;;;;;;;;0.00;0.00;;;;;;;;6278478;22;45660;-89
2023/09/23 13:07:29;;;;;;;;;0.00;0.00;;;;;;;;6280655;22;45938;-89
2023/09/23 13:09:54;;;;;;;;;0.00;0.00;;;;;;;;6279561;22;45366;-89
2023/09/23 13:12:19;;;;;;;;;0.00;0.00;;;;;;;;6280813;22;45394;-89
2023/09/23 13:14:45;;;;;;;;;0.00;0.00;;;;;;;;6279751;22;45322;-89
2023/09/23 13:17:10;;;;;;;;;0.00;0.00;;;;;;;;6277925;22;45459;-89
2023/09/23 13:19:35;;;;;;;;;0.33;0.00;;;;;;;;6279825;22;45355;-89
2023/09/23 13:22:00;;;;;;;;;0.00;0.00;;;;;;;;6280996;22;45233;-89
2023/09/23 13:24:28;;;;;;;;;0.00;0.00;;;;;;;;6277784;22;45251;-89
2023/09/23 13:26:53;;;;;;;;;0.00;0.00;;;;;;;;6280323;22;45275;-89
2023/09/23 13:29:18;;;;;;;;;0.00;0.00;;;;;;;;6280559;22;45219;-89
2023/09/23 13:31:44;;;;;;;;;0.00;0.00;;;;;;;;6277025;22;47071;-89
2023/09/23 13:34:09;;;;;;;;;0.00;0.00;;;;;;;;6277129;22;45187;-90
2023/09/23 13:36:34;;;;;;;;;0.00;0.00;;;;;;;;6280567;22;45423;-89
2023/09/23 13:38:59;;;;;;;;;0.00;0.00;;;;;;;;6279311;22;45584;-89
2023/09/23 13:41:25;;;;;;;;;0.00;0.00;;;;;;;;6280075;22;45262;-89
2023/09/23 13:43:50;;;;;;;;;0.00;0.00;;;;;;;;6279906;22;45335;-89
2023/09/23 13:46:15;;;;;;;;;0.00;0.00;;;;;;;;6278498;22;45153;-89
2023/09/23 13:48:41;;;;;;;;;0.00;0.00;;;;;;;;6279338;22;45529;-89
2023/09/23 13:51:06;;;;;;;;;0.00;0.00;;;;;;;;6279513;22;46296;-89
2023/09/23 13:53:34;;;;;;;;;0.00;0.00;;;;;;;;6279698;22;45282;-89
2023/09/23 13:55:59;;;;;;;;;0.00;0.00;;;;;;;;6280163;22;45337;-89
2023/09/23 13:58:24;;;;;;;;;0.00;0.00;;;;;;;;6281070;22;45563;-89
2023/09/23 14:00:50;;;;;;;;;0.00;0.00;;;;;;;;6280001;22;46110;-89
2023/09/23 14:03:18;;;;;;;;;0.00;0.00;;;;;;;;6281148;22;45260;-89
2023/09/23 14:05:43;;;;;;;;;0.00;0.00;;;;;;;;6281536;22;45307;-89
2023/09/23 14:08:08;;;;;;;;;0.00;0.00;;;;;;;;6282234;22;45225;-89
2023/09/23 14:10:34;;;;;;;;;0.00;0.00;;;;;;;;6280812;22;45930;-89
2023/09/23 14:12:59;;;;;;;;;0.00;0.00;;;;;;;;6278968;22;45146;-89
2023/09/23 14:15:24;;;;;;;;;0.00;0.00;;;;;;;;6280653;22;45192;-89
2023/09/23 14:17:49;;;;;;;;;0.00;0.00;;;;;;;;6278928;22;45505;-89
2023/09/23 14:20:15;;;;;;;;;0.00;0.00;;;;;;;;6278241;22;47095;-89
2023/09/23 14:22:45;;;;;;;;;0.00;0.00;;;;;;;;6281699;22;45156;-89
2023/09/23 14:25:10;;;;;;;;;0.00;0.00;;;;;;;;6278707;22;45374;-89
2023/09/23 14:27:35;;;;;;;;;0.00;0.00;;;;;;;;6278936;22;45319;-89
2023/09/23 14:30:00;;;;;;;;;0.00;0.00;;;;;;;;6280815;22;45377;-89
2023/09/23 14:32:26;;;;;;;;;0.00;0.00;;;;;;;;6281665;22;45395;-89
2023/09/23 14:34:51;;;;;;;;;0.00;0.00;;;;;;;;6281358;22;45251;-89
2023/09/23 14:37:16;;;;;;;;;0.00;0.00;;;;;;;;6278799;22;45859;-89
2023/09/23 14:39:41;;;;;;;;;0.00;0.00;;;;;;;;6279456;22;46345;-90
2023/09/23 14:42:07;;;;;;;;;0.00;0.00;;;;;;;;6280886;22;45695;-89
2023/09/23 14:44:32;;;;;;;;;0.00;0.00;;;;;;;;6280278;22;45306;-89
2023/09/23 14:46:57;;;;;;;;;0.00;0.00;;;;;;;;6281871;22;45278;-89
2023/09/23 14:49:22;;;;;;;;;0.00;0.00;;;;;;;;6278544;22;45396;-89
2023/09/23 14:51:48;;;;;;;;;0.00;0.00;;;;;;;;6277445;22;45918;-90
2023/09/23 14:54:13;;;;;;;;;0.00;0.00;;;;;;;;6280472;22;45574;-89
2023/09/23 14:56:38;;;;;;;;;0.00;0.00;;;;;;;;6279205;22;45346;-90
2023/09/23 14:59:12;;;;;;;;;0.00;0.00;;;;;;;;6278596;22;46504;-92
2023/09/23 15:01:38;;;;;;;;;0.00;0.00;;;;;;;;6280219;22;45360;-89
2023/09/23 15:04:04;;;;;;;;;0.00;0.00;;;;;;;;6280649;22;45372;-89
2023/09/23 15:06:29;;;;;;;;;0.00;0.00;;;;;;;;6280649;22;45265;-89
2023/09/23 15:08:55;;;;;;;;;0.00;0.00;;;;;;;;6279425;22;45322;-89
2023/09/23 15:11:20;;;;;;;;;0.00;0.00;;;;;;;;6281041;22;45527;-89
2023/09/23 15:13:46;;;;;;;;;0.00;0.00;;;;;;;;6278758;22;45354;-88
2023/09/23 15:16:11;;;;;;;;;0.00;0.00;;;;;;;;6282051;22;45097;-89
2023/09/23 15:18:37;;;;;;;;;0.00;0.00;;;;;;;;6280036;22;45294;-89
2023/09/23 15:21:05;;;;;;;;;0.00;0.00;;;;;;;;6279530;22;45755;-89
2023/09/23 15:23:30;;;;;;;;;0.00;0.00;;;;;;;;6280632;22;45212;-89
2023/09/23 15:25:55;;;;;;;;;0.00;0.00;;;;;;;;6281520;22;45434;-89
2023/09/23 15:28:21;;;;;;;;;0.00;0.00;;;;;;;;6281395;22;45181;-89
2023/09/23 15:30:46;;;;;;;;;0.00;0.00;;;;;;;;6281131;22;45164;-89
2023/09/23 15:33:12;;;;;;;;;0.00;0.00;;;;;;;;6281526;22;45173;-89
2023/09/23 15:35:38;;;;;;;;;0.00;0.00;;;;;;;;6278883;22;45521;-89
2023/09/23 15:38:04;;;;;;;;;0.00;0.00;;;;;;;;6281172;22;46251;-89
2023/09/23 15:40:30;;;;;;;;;0.00;0.00;;;;;;;;6281046;22;45262;-89
2023/09/23 15:42:55;;;;;;;;;0.00;0.00;;;;;;;;6281690;22;45368;-89
2023/09/23 15:45:20;;;;;;;;;0.00;0.00;;;;;;;;6277418;22;45395;-89
2023/09/23 15:47:46;;;;;;;;;0.00;0.00;;;;;;;;6280680;22;45232;-89
2023/09/23 15:50:11;;;;;;;;;0.00;0.00;;;;;;;;6281157;22;45291;-89
2023/09/23 15:52:37;;;;;;;;;0.00;0.00;;;;;;;;6280101;22;45169;-89
2023/09/23 15:55:02;;;;;;;;;0.00;0.00;;;;;;;;6278472;22;45693;-89
2023/09/23 15:57:28;;;;;;;;;0.00;0.00;;;;;;;;6280367;22;45729;-89
2023/09/23 15:59:56;;;;;;;;;0.00;0.00;;;;;;;;6247775;22;45475;-90
2023/09/23 16:02:21;;;;;;;;;0.00;0.00;;;;;;;;6248790;22;45530;-89
2023/09/23 16:04:46;;;;;;;;;0.00;0.00;;;;;;;;6249391;22;45480;-89
2023/09/23 16:07:11;;;;;;;;;0.00;0.00;;;;;;;;6247803;22;46831;-89
2023/09/23 16:09:37;;;;;;;;;0.00;0.00;;;;;;;;6246289;22;45353;-89
2023/09/23 16:12:03;;;;;;;;;0.00;0.00;;;;;;;;6250123;22;45233;-89
2023/09/23 16:14:29;;;;;;;;;0.00;0.00;;;;;;;;6223108;22;45406;-89
2023/09/23 16:16:54;;;;;;;;;0.00;0.00;;;;;;;;6248615;22;45228;-89
2023/09/23 16:19:19;;;;;;;;;0.00;0.00;;;;;;;;6249392;22;45330;-89
2023/09/23 16:21:44;;;;;;;;;0.00;0.00;;;;;;;;6247577;22;45393;-89
2023/09/23 16:24:10;;;;;;;;;0.00;0.00;;;;;;;;6248958;22;45283;-89
2023/09/23 16:26:35;;;;;;;;;0.00;0.00;;;;;;;;6249321;22;46756;-89
2023/09/23 16:29:00;;;;;;;;;0.00;0.00;;;;;;;;6249649;22;45262;-89
